Time;durP1;ratioP1;P1;durP2;ratioP2;P2;SDS_P1;SDS_P2;PMS_P1;PMS_P2;Temp;Humidity;BMP_temperature;BMP_pressure;BME280_temperature;BME280_humidity;BME280_pressure;Samples;Min_cycle;Max_cycle;Signal;HPM_P1;HPM_P2
2022/03/24 00:02:13;;;;;;;56.05;36.20;;;;;;;;;;5305207;28;20046;-69
2022/03/24 00:04:44;;;;;;;50.83;33.72;;;;;;;;;;5305042;28;20031;-69
2022/03/24 00:07:15;;;;;;;52.75;34.30;;;;;;;;;;5304385;28;20067;-69
2022/03/24 00:09:46;;;;;;;54.06;34.52;;;;;;;;;;5304551;28;20466;-68
2022/03/24 00:12:18;;;;;;;52.45;37.03;;;;;;;;;;5304942;28;20477;-68
2022/03/24 00:14:49;;;;;;;54.05;35.22;;;;;;;;;;5303716;28;20047;-68
2022/03/24 00:17:20;;;;;;;53.28;34.65;;;;;;;;;;5305189;28;20061;-68
2022/03/24 00:19:51;;;;;;;55.53;36.30;;;;;;;;;;5303863;28;20023;-69
2022/03/24 00:22:23;;;;;;;52.88;36.35;;;;;;;;;;5303995;28;20024;-68
2022/03/24 00:24:54;;;;;;;54.28;37.05;;;;;;;;;;5304283;28;20262;-69
2022/03/24 00:27:25;;;;;;;58.60;35.88;;;;;;;;;;5304038;28;20024;-69
2022/03/24 00:29:57;;;;;;;60.95;36.22;;;;;;;;;;5304437;28;20028;-69
2022/03/24 00:32:28;;;;;;;55.16;35.92;;;;;;;;;;5304732;28;20016;-68
2022/03/24 00:34:59;;;;;;;59.34;36.72;;;;;;;;;;5303315;28;20016;-68
2022/03/24 00:37:31;;;;;;;63.40;36.64;;;;;;;;;;5304328;28;20020;-68
2022/03/24 00:40:06;;;;;;;59.35;37.25;;;;;;;;;;5304467;28;20091;-69
2022/03/24 00:42:38;;;;;;;58.10;37.20;;;;;;;;;;5303430;28;20012;-69
2022/03/24 00:45:15;;;;;;;60.50;36.88;;;;;;;;;;5304653;28;20020;-68
2022/03/24 00:47:46;;;;;;;54.47;35.88;;;;;;;;;;5303630;28;20036;-69
2022/03/24 00:50:18;;;;;;;57.28;37.33;;;;;;;;;;5303806;28;20477;-69
2022/03/24 00:52:49;;;;;;;58.25;36.75;;;;;;;;;;5303782;28;20020;-68
2022/03/24 00:55:21;;;;;;;56.45;36.58;;;;;;;;;;5304142;28;20103;-69
2022/03/24 00:57:52;;;;;;;51.08;34.58;;;;;;;;;;5302982;28;20479;-69
2022/03/24 01:00:25;;;;;;;55.30;35.05;;;;;;;;;;5304211;28;20479;-69
2022/03/24 01:02:57;;;;;;;54.53;35.25;;;;;;;;;;5302901;28;20221;-69
2022/03/24 01:05:29;;;;;;;57.05;36.45;;;;;;;;;;5304069;28;20055;-69
2022/03/24 01:08:00;;;;;;;57.50;36.25;;;;;;;;;;5303707;28;20082;-69
2022/03/24 01:10:31;;;;;;;53.60;36.22;;;;;;;;;;5302840;28;20019;-70
2022/03/24 01:13:03;;;;;;;55.45;35.85;;;;;;;;;;5303614;28;20035;-69
2022/03/24 01:15:34;;;;;;;59.97;36.53;;;;;;;;;;5303376;28;20402;-69
2022/03/24 01:18:07;;;;;;;51.72;35.35;;;;;;;;;;5302918;28;20028;-69
2022/03/24 01:20:38;;;;;;;59.08;36.63;;;;;;;;;;5303453;28;20379;-69
2022/03/24 01:23:11;;;;;;;56.88;36.00;;;;;;;;;;5303252;28;20017;-69
2022/03/24 01:25:42;;;;;;;56.35;36.28;;;;;;;;;;5302715;28;20016;-69
2022/03/24 01:28:14;;;;;;;51.40;35.03;;;;;;;;;;5303373;28;20035;-70
2022/03/24 01:30:46;;;;;;;53.88;36.10;;;;;;;;;;5301786;28;20004;-69
2022/03/24 01:33:17;;;;;;;56.55;37.00;;;;;;;;;;5303189;28;20110;-69
2022/03/24 01:35:50;;;;;;;56.68;36.98;;;;;;;;;;5302785;28;20078;-69
2022/03/24 01:38:22;;;;;;;58.03;38.03;;;;;;;;;;5302786;28;20035;-68
2022/03/24 01:40:53;;;;;;;53.85;35.15;;;;;;;;;;5302779;28;20450;-69
2022/03/24 01:43:25;;;;;;;54.65;36.35;;;;;;;;;;5303492;28;20017;-69
2022/03/24 01:45:56;;;;;;;61.63;35.83;;;;;;;;;;5302446;28;20279;-69
2022/03/24 01:48:27;;;;;;;58.78;36.92;;;;;;;;;;5303436;28;20031;-69
2022/03/24 01:50:59;;;;;;;54.72;35.75;;;;;;;;;;5302539;28;20016;-69
2022/03/24 01:53:30;;;;;;;56.33;36.83;;;;;;;;;;5302194;28;20587;-68
2022/03/24 01:56:03;;;;;;;58.30;36.90;;;;;;;;;;5302913;28;20012;-69
2022/03/24 01:58:36;;;;;;;55.55;37.25;;;;;;;;;;5302751;28;20020;-69
2022/03/24 02:01:26;;;;;;;56.78;35.33;;;;;;;;;;5302196;28;20120;-69
2022/03/24 02:03:59;;;;;;;53.65;35.30;;;;;;;;;;5302602;28;20028;-69
2022/03/24 02:06:33;;;;;;;59.30;36.28;;;;;;;;;;5301858;28;20060;-69
2022/03/24 02:09:04;;;;;;;53.05;35.47;;;;;;;;;;5302456;28;20047;-69
2022/03/24 02:11:36;;;;;;;51.03;34.20;;;;;;;;;;5302861;28;20024;-69
2022/03/24 02:14:07;;;;;;;53.63;35.40;;;;;;;;;;5301807;28;20071;-68
2022/03/24 02:16:39;;;;;;;54.78;35.65;;;;;;;;;;5302179;28;20031;-69
2022/03/24 02:19:16;;;;;;;54.80;35.17;;;;;;;;;;5302645;28;20160;-69
2022/03/24 02:21:48;;;;;;;54.85;33.65;;;;;;;;;;5301465;28;20020;-70
2022/03/24 02:24:20;;;;;;;54.70;35.10;;;;;;;;;;5303029;28;20023;-69
2022/03/24 02:26:52;;;;;;;56.45;33.03;;;;;;;;;;5301412;28;20039;-70
2022/03/24 02:29:25;;;;;;;52.50;35.67;;;;;;;;;;5302787;28;20024;-69
2022/03/24 02:31:56;;;;;;;55.03;33.72;;;;;;;;;;5301798;28;20043;-69
2022/03/24 02:37:22;;;;;;;51.65;32.97;;;;;;;;;;5303190;28;20051;-69
2022/03/24 02:39:55;;;;;;;50.50;33.38;;;;;;;;;;5302040;28;20023;-69
2022/03/24 02:42:27;;;;;;;52.67;33.88;;;;;;;;;;5302160;28;20459;-67
2022/03/24 02:45:00;;;;;;;52.28;34.13;;;;;;;;;;5306270;28;20467;-66
2022/03/24 02:47:32;;;;;;;53.35;34.05;;;;;;;;;;5306467;28;20028;-68
2022/03/24 02:50:04;;;;;;;49.53;32.88;;;;;;;;;;5305561;28;20077;-68
2022/03/24 02:52:35;;;;;;;54.58;34.13;;;;;;;;;;5306243;28;20073;-68
2022/03/24 02:55:07;;;;;;;56.83;33.83;;;;;;;;;;5305637;28;20008;-68
2022/03/24 02:57:39;;;;;;;48.47;32.55;;;;;;;;;;5306423;28;20471;-68
2022/03/24 03:00:10;;;;;;;47.94;32.00;;;;;;;;;;5306472;28;20012;-68
2022/03/24 03:02:41;;;;;;;55.88;33.95;;;;;;;;;;5305523;28;20021;-68
2022/03/24 03:05:12;;;;;;;50.98;32.78;;;;;;;;;;5305741;28;20027;-69
2022/03/24 03:07:44;;;;;;;49.72;32.06;;;;;;;;;;5305803;28;20059;-68
2022/03/24 03:10:15;;;;;;;52.90;33.03;;;;;;;;;;5305292;28;20166;-68
2022/03/24 03:12:47;;;;;;;54.53;32.45;;;;;;;;;;5305349;28;20095;-69
2022/03/24 03:15:18;;;;;;;52.85;32.70;;;;;;;;;;5305652;28;20048;-68
2022/03/24 03:17:49;;;;;;;50.22;31.72;;;;;;;;;;5304292;28;20395;-69
2022/03/24 03:20:20;;;;;;;50.02;31.28;;;;;;;;;;5305603;28;20032;-69
2022/03/24 03:22:53;;;;;;;49.65;31.90;;;;;;;;;;5304917;28;20044;-69
2022/03/24 03:25:24;;;;;;;54.95;32.08;;;;;;;;;;5304843;28;20026;-69
2022/03/24 03:27:55;;;;;;;54.00;32.45;;;;;;;;;;5304881;28;20062;-69
2022/03/24 03:30:27;;;;;;;55.28;33.35;;;;;;;;;;5304563;28;20019;-69
2022/03/24 03:32:58;;;;;;;52.72;32.90;;;;;;;;;;5305039;28;20008;-69
2022/03/24 03:35:29;;;;;;;56.92;33.92;;;;;;;;;;5305229;28;20016;-69
2022/03/24 03:38:00;;;;;;;44.53;31.08;;;;;;;;;;5304217;28;20020;-69
2022/03/24 03:40:31;;;;;;;51.06;31.84;;;;;;;;;;5304874;28;20016;-69
2022/03/24 03:43:03;;;;;;;54.76;32.98;;;;;;;;;;5305147;28;20500;-69
2022/03/24 03:45:34;;;;;;;53.82;32.12;;;;;;;;;;5304315;28;20024;-69
2022/03/24 03:48:05;;;;;;;49.00;33.28;;;;;;;;;;5304852;28;20119;-69
2022/03/24 03:50:37;;;;;;;51.28;32.75;;;;;;;;;;5304717;28;20024;-68
2022/03/24 03:53:08;;;;;;;55.50;34.78;;;;;;;;;;5303848;28;20078;-68
2022/03/24 03:55:40;;;;;;;54.75;33.08;;;;;;;;;;5303581;28;20020;-70
2022/03/24 03:58:11;;;;;;;52.08;34.55;;;;;;;;;;5304714;28;20359;-69
2022/03/24 04:00:57;;;;;;;53.28;32.97;;;;;;;;;;5303584;28;20016;-69
2022/03/24 04:03:30;;;;;;;52.75;33.90;;;;;;;;;;5304831;28;20425;-69
2022/03/24 04:06:05;;;;;;;53.35;33.75;;;;;;;;;;5303629;28;20074;-69
2022/03/24 04:08:37;;;;;;;58.72;33.80;;;;;;;;;;5304353;28;20064;-68
2022/03/24 04:11:09;;;;;;;51.30;32.95;;;;;;;;;;5304363;28;20028;-68
2022/03/24 04:13:42;;;;;;;51.00;32.55;;;;;;;;;;5303387;28;20481;-68
2022/03/24 04:16:13;;;;;;;51.95;34.03;;;;;;;;;;5304276;28;20335;-69
2022/03/24 04:18:48;;;;;;;53.88;32.50;;;;;;;;;;5304277;28;20104;-69
2022/03/24 04:21:19;;;;;;;48.80;32.15;;;;;;;;;;5303725;28;20025;-69
2022/03/24 04:23:51;;;;;;;50.53;32.42;;;;;;;;;;5303857;28;20020;-67
2022/03/24 04:26:22;;;;;;;56.80;33.25;;;;;;;;;;5303896;28;20020;-68
2022/03/24 04:28:53;;;;;;;50.38;32.92;;;;;;;;;;5303214;28;20408;-68
2022/03/24 04:31:24;;;;;;;53.46;34.04;;;;;;;;;;5304295;28;20023;-68
2022/03/24 04:33:55;;;;;;;48.28;31.45;;;;;;;;;;5302732;28;20020;-68
2022/03/24 04:36:27;;;;;;;56.33;34.33;;;;;;;;;;5304097;28;20031;-68
2022/03/24 04:39:01;;;;;;;55.03;33.72;;;;;;;;;;5303251;28;20095;-68
2022/03/24 04:41:32;;;;;;;51.30;33.78;;;;;;;;;;5302906;28;20016;-68
2022/03/24 04:44:04;;;;;;;53.00;32.85;;;;;;;;;;5303960;28;20031;-68
2022/03/24 04:46:35;;;;;;;54.65;32.70;;;;;;;;;;5303177;28;20047;-69
2022/03/24 04:49:09;;;;;;;51.84;34.14;;;;;;;;;;5302628;28;20036;-69
2022/03/24 04:51:40;;;;;;;56.38;32.80;;;;;;;;;;5303388;28;20054;-68
2022/03/24 04:54:11;;;;;;;56.66;34.00;;;;;;;;;;5303812;28;20058;-69
2022/03/24 04:56:42;;;;;;;53.50;32.72;;;;;;;;;;5302859;28;20013;-69
2022/03/24 04:59:13;;;;;;;54.13;33.20;;;;;;;;;;5303442;28;20016;-68
2022/03/24 05:01:44;;;;;;;59.42;34.45;;;;;;;;;;5302126;28;20043;-68
2022/03/24 05:04:16;;;;;;;52.67;33.30;;;;;;;;;;5303491;28;20024;-69
2022/03/24 05:06:47;;;;;;;48.00;30.58;;;;;;;;;;5302198;28;20016;-68
2022/03/24 05:09:19;;;;;;;48.33;31.73;;;;;;;;;;5302379;28;20032;-68
2022/03/24 05:11:50;;;;;;;54.10;33.50;;;;;;;;;;5302968;28;20469;-69
2022/03/24 05:14:21;;;;;;;52.35;32.83;;;;;;;;;;5303238;28;20058;-69
2022/03/24 05:16:52;;;;;;;51.60;31.78;;;;;;;;;;5302029;28;20016;-69
2022/03/24 05:19:23;;;;;;;47.30;30.65;;;;;;;;;;5303426;28;20027;-69
2022/03/24 05:21:54;;;;;;;48.63;31.50;;;;;;;;;;5302834;28;20032;-69
2022/03/24 05:24:26;;;;;;;56.42;32.05;;;;;;;;;;5302870;28;20053;-70
2022/03/24 05:26:57;;;;;;;58.46;33.82;;;;;;;;;;5302344;28;20028;-68
2022/03/24 05:29:28;;;;;;;55.42;30.98;;;;;;;;;;5303136;28;20056;-68
2022/03/24 05:31:59;;;;;;;53.36;32.78;;;;;;;;;;5301771;28;20013;-68
2022/03/24 05:34:31;;;;;;;51.17;32.15;;;;;;;;;;5302279;28;20116;-68
2022/03/24 05:37:03;;;;;;;53.97;33.28;;;;;;;;;;5301719;28;20024;-68
2022/03/24 05:39:34;;;;;;;58.17;31.83;;;;;;;;;;5302680;28;20016;-70
2022/03/24 05:42:05;;;;;;;50.10;32.33;;;;;;;;;;5302537;28;20020;-67
2022/03/24 05:44:37;;;;;;;49.17;31.40;;;;;;;;;;5301869;28;20020;-69
2022/03/24 05:47:08;;;;;;;52.88;32.47;;;;;;;;;;5302335;28;20016;-68
2022/03/24 05:49:39;;;;;;;48.70;32.08;;;;;;;;;;5302414;28;20032;-69
2022/03/24 05:52:11;;;;;;;57.74;32.78;;;;;;;;;;5301483;28;20019;-69
2022/03/24 05:54:42;;;;;;;49.35;31.60;;;;;;;;;;5302544;28;20103;-69
2022/03/24 05:57:13;;;;;;;55.20;33.75;;;;;;;;;;5302444;28;20039;-69
2022/03/24 05:59:44;;;;;;;54.00;33.28;;;;;;;;;;5301147;28;20081;-69
2022/03/24 06:02:16;;;;;;;53.28;32.08;;;;;;;;;;5302388;28;20065;-68
2022/03/24 06:04:47;;;;;;;53.80;32.42;;;;;;;;;;5301685;28;20152;-69
2022/03/24 06:07:19;;;;;;;54.05;32.83;;;;;;;;;;5301404;28;20487;-68
2022/03/24 06:09:50;;;;;;;58.65;31.98;;;;;;;;;;5301484;28;20051;-68
2022/03/24 06:12:23;;;;;;;51.83;32.42;;;;;;;;;;5301426;28;20012;-68
2022/03/24 06:14:54;;;;;;;49.35;31.00;;;;;;;;;;5301361;28;20040;-69
2022/03/24 06:17:25;;;;;;;52.24;30.94;;;;;;;;;;5301987;28;20111;-68
2022/03/24 06:19:56;;;;;;;48.08;32.10;;;;;;;;;;5300808;28;20016;-69
2022/03/24 06:22:28;;;;;;;56.94;32.26;;;;;;;;;;5302008;28;20085;-68
2022/03/24 06:24:59;;;;;;;51.15;30.88;;;;;;;;;;5301463;28;20020;-68
2022/03/24 06:27:30;;;;;;;52.72;32.25;;;;;;;;;;5300897;28;20124;-69
2022/03/24 06:30:05;;;;;;;48.78;30.85;;;;;;;;;;5301882;28;20107;-69
2022/03/24 06:32:37;;;;;;;49.40;31.05;;;;;;;;;;5301979;28;20016;-69
2022/03/24 06:35:08;;;;;;;49.15;32.10;;;;;;;;;;5300873;28;20023;-69
2022/03/24 06:37:42;;;;;;;53.90;30.55;;;;;;;;;;5301682;28;20101;-69
2022/03/24 06:40:16;;;;;;;53.78;31.98;;;;;;;;;;5300820;28;20016;-69
2022/03/24 06:42:47;;;;;;;50.75;34.47;;;;;;;;;;5301440;28;20054;-69
2022/03/24 06:45:18;;;;;;;51.52;33.58;;;;;;;;;;5302084;28;20037;-69
2022/03/24 06:47:49;;;;;;;54.88;34.20;;;;;;;;;;5300439;28;20032;-69
2022/03/24 06:50:21;;;;;;;50.60;32.30;;;;;;;;;;5301511;28;20012;-69
2022/03/24 06:52:52;;;;;;;55.95;33.13;;;;;;;;;;5300468;28;20368;-69
2022/03/24 06:55:23;;;;;;;49.72;32.95;;;;;;;;;;5301211;28;20016;-68
2022/03/24 06:57:54;;;;;;;48.85;32.75;;;;;;;;;;5301081;28;20024;-69
2022/03/24 07:00:26;;;;;;;48.47;32.45;;;;;;;;;;5301785;28;20142;-69
2022/03/24 07:02:58;;;;;;;45.45;30.65;;;;;;;;;;5300407;28;20028;-69
2022/03/24 07:05:29;;;;;;;47.35;32.08;;;;;;;;;;5301453;28;20004;-69
2022/03/24 07:08:02;;;;;;;47.83;32.97;;;;;;;;;;5300773;28;20062;-69
2022/03/24 07:10:33;;;;;;;52.97;33.20;;;;;;;;;;5300241;28;20024;-69
2022/03/24 07:13:04;;;;;;;52.23;32.27;;;;;;;;;;5301380;28;20024;-69
2022/03/24 07:15:35;;;;;;;50.65;32.83;;;;;;;;;;5300541;28;20365;-69
2022/03/24 07:18:07;;;;;;;48.33;34.17;;;;;;;;;;5301032;28;20099;-69
2022/03/24 07:20:38;;;;;;;46.88;34.28;;;;;;;;;;5301444;28;20058;-70
2022/03/24 07:23:09;;;;;;;46.55;33.72;;;;;;;;;;5300554;28;20027;-70
2022/03/24 07:25:41;;;;;;;52.53;34.38;;;;;;;;;;5300910;28;20016;-70
2022/03/24 07:28:12;;;;;;;43.55;33.38;;;;;;;;;;5301283;28;20044;-69
2022/03/24 07:30:44;;;;;;;45.30;33.60;;;;;;;;;;5303048;28;20012;-70
2022/03/24 07:33:15;;;;;;;42.67;34.72;;;;;;;;;;5305395;28;20024;-70
2022/03/24 07:35:47;;;;;;;43.22;33.97;;;;;;;;;;5304938;28;20423;-70
2022/03/24 07:38:18;;;;;;;58.20;34.20;;;;;;;;;;5304441;28;20020;-70
2022/03/24 07:40:50;;;;;;;39.97;32.65;;;;;;;;;;5305074;28;20024;-70
2022/03/24 07:43:21;;;;;;;46.10;32.63;;;;;;;;;;5304626;28;20046;-70
2022/03/24 07:45:53;;;;;;;46.83;31.30;;;;;;;;;;5304753;28;20069;-70
2022/03/24 07:48:27;;;;;;;38.10;30.05;;;;;;;;;;5305076;28;20040;-70
2022/03/24 07:51:00;;;;;;;37.28;29.52;;;;;;;;;;5303709;28;20107;-70
2022/03/24 07:53:43;;;;;;;37.92;30.38;;;;;;;;;;5305077;28;20378;-70
2022/03/24 07:56:15;;;;;;;39.75;31.13;;;;;;;;;;5304835;28;20023;-70
2022/03/24 07:58:46;;;;;;;37.80;31.15;;;;;;;;;;5303521;28;20085;-70
2022/03/24 08:01:30;;;;;;;47.20;34.20;;;;;;;;;;5305056;28;20016;-70
2022/03/24 08:04:03;;;;;;;42.00;32.65;;;;;;;;;;5304515;28;20024;-70
2022/03/24 08:06:39;;;;;;;42.50;32.88;;;;;;;;;;5303737;28;20039;-70
2022/03/24 08:09:10;;;;;;;46.60;34.17;;;;;;;;;;5304229;28;20035;-70
2022/03/24 08:11:42;;;;;;;43.50;33.90;;;;;;;;;;5303550;28;20411;-70
2022/03/24 08:14:13;;;;;;;43.22;32.65;;;;;;;;;;5303840;28;20044;-70
2022/03/24 08:16:45;;;;;;;40.33;30.95;;;;;;;;;;5304064;28;20047;-70
2022/03/24 08:19:16;;;;;;;35.42;30.73;;;;;;;;;;5303569;28;20480;-70
2022/03/24 08:21:48;;;;;;;38.15;30.38;;;;;;;;;;5303853;28;20043;-72
2022/03/24 08:24:19;;;;;;;42.38;31.33;;;;;;;;;;5304616;28;20031;-70
2022/03/24 08:26:50;;;;;;;37.55;30.27;;;;;;;;;;5303250;28;20047;-70
2022/03/24 08:29:21;;;;;;;44.77;32.27;;;;;;;;;;5303850;28;20032;-70
2022/03/24 08:31:52;;;;;;;40.28;32.00;;;;;;;;;;5303631;28;20360;-70
2022/03/24 08:34:23;;;;;;;43.67;31.90;;;;;;;;;;5303318;28;20016;-70
2022/03/24 08:36:55;;;;;;;49.88;32.38;;;;;;;;;;5303539;28;20035;-70
2022/03/24 08:39:26;;;;;;;46.87;30.63;;;;;;;;;;5304278;28;20402;-70
2022/03/24 08:41:57;;;;;;;50.37;32.50;;;;;;;;;;5302446;28;20333;-68
2022/03/24 08:44:28;;;;;;;45.95;31.00;;;;;;;;;;5303973;28;20266;-68
2022/03/24 08:46:59;;;;;;;43.40;30.80;;;;;;;;;;5302645;28;20089;-68
2022/03/24 08:49:31;;;;;;;43.58;32.20;;;;;;;;;;5303292;28;20298;-68
2022/03/24 08:52:02;;;;;;;41.88;31.67;;;;;;;;;;5303493;28;20024;-69
2022/03/24 08:54:33;;;;;;;38.63;28.45;;;;;;;;;;5302768;28;20062;-68
2022/03/24 08:57:04;;;;;;;38.33;27.98;;;;;;;;;;5303336;28;20091;-69
2022/03/24 08:59:36;;;;;;;39.23;29.93;;;;;;;;;;5303341;28;20047;-69
2022/03/24 09:02:08;;;;;;;40.15;28.92;;;;;;;;;;5302545;28;20281;-69
2022/03/24 09:04:39;;;;;;;39.22;29.63;;;;;;;;;;5303440;28;20023;-69
2022/03/24 09:07:10;;;;;;;38.28;30.05;;;;;;;;;;5303218;28;20009;-69
2022/03/24 09:09:42;;;;;;;40.92;29.38;;;;;;;;;;5302460;28;20433;-69
2022/03/24 09:12:13;;;;;;;39.13;29.65;;;;;;;;;;5303024;28;20482;-69
2022/03/24 09:14:44;;;;;;;34.42;27.67;;;;;;;;;;5302372;28;20044;-69
2022/03/24 09:17:15;;;;;;;37.15;28.20;;;;;;;;;;5303094;28;20459;-69
2022/03/24 09:19:47;;;;;;;30.05;26.20;;;;;;;;;;5302743;28;20047;-69
2022/03/24 09:22:18;;;;;;;32.63;25.48;;;;;;;;;;5302298;28;20020;-69
2022/03/24 09:24:49;;;;;;;32.60;26.63;;;;;;;;;;5302569;28;20390;-69
2022/03/24 09:27:20;;;;;;;27.80;24.80;;;;;;;;;;5303182;28;20122;-68
2022/03/24 09:29:52;;;;;;;31.67;24.20;;;;;;;;;;5301644;28;20378;-69
2022/03/24 09:32:24;;;;;;;33.45;23.77;;;;;;;;;;5303056;28;20008;-69
2022/03/24 09:34:55;;;;;;;32.15;25.27;;;;;;;;;;5302418;28;20095;-70
2022/03/24 09:37:26;;;;;;;28.45;22.58;;;;;;;;;;5302431;28;20135;-70
2022/03/24 09:39:58;;;;;;;28.55;23.92;;;;;;;;;;5302413;28;20099;-70
2022/03/24 09:42:29;;;;;;;24.52;20.38;;;;;;;;;;5303071;28;20027;-71
2022/03/24 09:45:01;;;;;;;23.20;18.85;;;;;;;;;;5301919;28;20099;-70
2022/03/24 09:47:33;;;;;;;29.85;20.73;;;;;;;;;;5302262;28;20030;-70
2022/03/24 09:50:05;;;;;;;29.08;22.67;;;;;;;;;;5301930;28;20486;-71
2022/03/24 09:52:37;;;;;;;24.00;18.17;;;;;;;;;;5301790;28;20032;-71
2022/03/24 09:55:08;;;;;;;20.08;17.95;;;;;;;;;;5301827;28;20070;-70
2022/03/24 09:57:41;;;;;;;25.17;22.48;;;;;;;;;;5300055;28;20127;-70
2022/03/24 10:00:15;;;;;;;24.27;21.33;;;;;;;;;;5301187;28;20089;-71
2022/03/24 10:03:05;;;;;;;25.60;21.75;;;;;;;;;;5301797;28;20115;-70
2022/03/24 10:05:36;;;;;;;30.58;23.25;;;;;;;;;;5301600;28;20381;-70
2022/03/24 10:08:08;;;;;;;24.42;20.73;;;;;;;;;;5302034;28;20040;-70
2022/03/24 10:10:43;;;;;;;22.17;18.83;;;;;;;;;;5302637;28;20111;-70
2022/03/24 10:13:23;;;;;;;19.25;17.35;;;;;;;;;;5301582;28;20282;-70
2022/03/24 10:15:54;;;;;;;21.13;18.65;;;;;;;;;;5301861;28;20040;-70
2022/03/24 10:18:25;;;;;;;22.30;18.95;;;;;;;;;;5301699;28;20053;-70
2022/03/24 10:21:00;;;;;;;21.98;17.98;;;;;;;;;;5301760;28;20513;-69
2022/03/24 10:23:43;;;;;;;22.17;17.52;;;;;;;;;;5302182;28;20099;-69
2022/03/24 10:26:14;;;;;;;24.42;18.35;;;;;;;;;;5301354;28;20099;-70
2022/03/24 10:28:58;;;;;;;23.08;17.52;;;;;;;;;;5301637;28;20490;-70
2022/03/24 10:31:34;;;;;;;23.42;17.75;;;;;;;;;;5302163;28;20429;-70
2022/03/24 10:34:06;;;;;;;22.02;15.95;;;;;;;;;;5301466;28;20547;-69
2022/03/24 10:36:38;;;;;;;23.75;17.67;;;;;;;;;;5302146;28;20024;-69
2022/03/24 10:39:09;;;;;;;22.50;17.17;;;;;;;;;;5301398;28;20073;-69
2022/03/24 10:41:40;;;;;;;20.27;17.33;;;;;;;;;;5301109;28;20016;-69
2022/03/24 10:44:12;;;;;;;18.85;16.05;;;;;;;;;;5302062;28;20489;-70
2022/03/24 10:46:44;;;;;;;22.92;18.15;;;;;;;;;;5301147;28;20073;-69
2022/03/24 10:49:15;;;;;;;22.80;18.30;;;;;;;;;;5301857;28;20032;-69
2022/03/24 10:51:48;;;;;;;24.38;20.02;;;;;;;;;;5301448;28;20020;-69
2022/03/24 10:54:29;;;;;;;21.83;16.98;;;;;;;;;;5301369;28;20406;-69
2022/03/24 10:57:06;;;;;;;18.05;16.13;;;;;;;;;;5301823;28;20375;-69
2022/03/24 10:59:45;;;;;;;24.08;14.68;;;;;;;;;;5301822;28;20082;-69
2022/03/24 11:02:16;;;;;;;21.17;16.98;;;;;;;;;;5301179;28;20439;-69
2022/03/24 11:04:48;;;;;;;22.65;18.30;;;;;;;;;;5304098;28;20019;-70
2022/03/24 11:07:25;;;;;;;18.73;16.75;;;;;;;;;;5305191;28;20028;-69
2022/03/24 11:09:56;;;;;;;21.65;15.88;;;;;;;;;;5305582;28;20016;-69
2022/03/24 11:12:29;;;;;;;17.43;15.23;;;;;;;;;;5305811;28;20046;-70
2022/03/24 11:15:01;;;;;;;24.85;15.02;;;;;;;;;;5304574;28;20359;-69
2022/03/24 11:17:33;;;;;;;23.00;16.13;;;;;;;;;;5306120;28;20024;-70
2022/03/24 11:20:13;;;;;;;21.02;16.50;;;;;;;;;;5305534;28;20012;-69
2022/03/24 11:22:50;;;;;;;21.33;18.35;;;;;;;;;;5304709;28;20373;-71
2022/03/24 11:25:23;;;;;;;23.15;17.85;;;;;;;;;;5305897;28;20027;-71
2022/03/24 11:27:54;;;;;;;20.73;16.55;;;;;;;;;;5305200;28;20496;-69
2022/03/24 11:30:26;;;;;;;24.77;18.27;;;;;;;;;;5304993;28;20073;-69
2022/03/24 11:32:58;;;;;;;24.03;19.33;;;;;;;;;;5305091;28;20051;-69
2022/03/24 11:35:32;;;;;;;28.70;19.90;;;;;;;;;;5304085;28;20293;-69
2022/03/24 11:38:04;;;;;;;24.40;18.02;;;;;;;;;;5304866;28;20111;-69
2022/03/24 11:40:36;;;;;;;25.33;18.52;;;;;;;;;;5305119;28;20455;-69
2022/03/24 11:43:08;;;;;;;25.20;19.83;;;;;;;;;;5303981;28;20149;-70
2022/03/24 11:45:48;;;;;;;28.67;18.80;;;;;;;;;;5305038;28;20016;-69
2022/03/24 11:48:39;;;;;;;26.15;19.92;;;;;;;;;;5305081;28;20068;-70
2022/03/24 11:51:21;;;;;;;21.05;18.75;;;;;;;;;;5304123;28;20099;-70
2022/03/24 11:54:02;;;;;;;25.13;20.48;;;;;;;;;;5304671;28;20024;-70
2022/03/24 11:56:34;;;;;;;25.40;19.55;;;;;;;;;;5299558;28;20024;-69
2022/03/24 11:59:06;;;;;;;26.20;18.88;;;;;;;;;;5303587;28;20034;-69
2022/03/24 12:01:37;;;;;;;31.05;20.20;;;;;;;;;;5304488;28;20095;-69
2022/03/24 12:04:09;;;;;;;24.42;19.67;;;;;;;;;;5303876;28;20023;-69
2022/03/24 12:06:40;;;;;;;26.85;20.38;;;;;;;;;;5304139;28;20036;-69
2022/03/24 12:09:16;;;;;;;32.30;20.52;;;;;;;;;;5304383;28;20457;-69
2022/03/24 12:11:50;;;;;;;23.80;19.55;;;;;;;;;;5303572;28;20020;-69
2022/03/24 12:14:36;;;;;;;28.40;21.15;;;;;;;;;;5304625;28;20502;-69
2022/03/24 12:17:18;;;;;;;30.63;21.42;;;;;;;;;;5302928;28;20026;-69
2022/03/24 12:19:50;;;;;;;28.27;20.85;;;;;;;;;;5303524;28;20023;-70
2022/03/24 12:22:25;;;;;;;28.75;21.38;;;;;;;;;;5304970;28;20028;-68
2022/03/24 12:24:59;;;;;;;29.50;20.52;;;;;;;;;;5303152;28;20035;-68
2022/03/24 12:27:31;;;;;;;29.48;22.13;;;;;;;;;;5303665;28;20031;-69
2022/03/24 12:30:12;;;;;;;29.33;22.67;;;;;;;;;;5303961;28;20097;-70
2022/03/24 12:33:03;;;;;;;27.50;22.50;;;;;;;;;;5302661;28;20108;-68
2022/03/24 12:35:38;;;;;;;29.55;21.40;;;;;;;;;;5303831;28;20015;-68
2022/03/24 12:38:22;;;;;;;27.13;20.85;;;;;;;;;;5303072;28;20020;-69
2022/03/24 12:41:05;;;;;;;28.83;21.75;;;;;;;;;;5302649;28;20028;-69
2022/03/24 12:43:47;;;;;;;25.17;20.90;;;;;;;;;;5303627;28;20016;-68
2022/03/24 12:46:18;;;;;;;27.17;20.25;;;;;;;;;;5303152;28;20496;-68
2022/03/24 12:48:50;;;;;;;26.83;20.65;;;;;;;;;;5302807;28;20056;-69
2022/03/24 12:51:26;;;;;;;26.27;20.98;;;;;;;;;;5303171;28;20031;-69
2022/03/24 12:54:02;;;;;;;28.55;20.50;;;;;;;;;;5301953;28;20371;-69
2022/03/24 12:56:34;;;;;;;27.08;19.65;;;;;;;;;;5303109;28;20099;-68
2022/03/24 12:59:06;;;;;;;24.88;19.23;;;;;;;;;;5303460;28;20099;-68
2022/03/24 13:01:37;;;;;;;28.52;20.00;;;;;;;;;;5302720;28;20016;-68
2022/03/24 13:04:09;;;;;;;27.95;19.83;;;;;;;;;;5303316;28;20077;-68
2022/03/24 13:06:40;;;;;;;25.50;19.13;;;;;;;;;;5303190;28;20067;-68
2022/03/24 13:09:13;;;;;;;24.77;20.20;;;;;;;;;;5302306;28;20390;-68
2022/03/24 13:11:52;;;;;;;25.55;19.58;;;;;;;;;;5302983;28;20016;-68
2022/03/24 13:14:26;;;;;;;25.08;19.40;;;;;;;;;;5302826;28;20047;-68
2022/03/24 13:17:01;;;;;;;26.05;18.90;;;;;;;;;;5303149;28;20450;-68
2022/03/24 13:19:32;;;;;;;21.40;18.60;;;;;;;;;;5303162;28;20065;-68
2022/03/24 13:22:11;;;;;;;21.85;18.38;;;;;;;;;;5302192;28;20470;-68
2022/03/24 13:24:42;;;;;;;23.77;19.50;;;;;;;;;;5303343;28;20020;-68
2022/03/24 13:27:17;;;;;;;22.63;18.27;;;;;;;;;;5302331;28;20474;-69
2022/03/24 13:29:49;;;;;;;26.70;19.50;;;;;;;;;;5301971;28;20062;-68
2022/03/24 13:32:23;;;;;;;24.98;18.95;;;;;;;;;;5303042;28;20048;-69
2022/03/24 13:34:59;;;;;;;24.73;20.02;;;;;;;;;;5298455;28;20111;-67
2022/03/24 13:37:40;;;;;;;24.70;19.67;;;;;;;;;;5302565;28;20021;-68
2022/03/24 13:40:13;;;;;;;24.45;19.92;;;;;;;;;;5302728;28;20027;-68
2022/03/24 13:42:44;;;;;;;25.52;21.42;;;;;;;;;;5301706;28;20070;-68
2022/03/24 13:45:16;;;;;;;29.17;20.95;;;;;;;;;;5302743;28;20016;-68
2022/03/24 13:47:56;;;;;;;29.77;21.30;;;;;;;;;;5301885;28;20474;-68
2022/03/24 13:50:28;;;;;;;30.25;22.50;;;;;;;;;;5302240;28;20053;-67
2022/03/24 13:53:11;;;;;;;24.33;20.05;;;;;;;;;;5302348;28;20475;-68
2022/03/24 13:55:44;;;;;;;25.65;21.23;;;;;;;;;;5302674;28;20103;-67
2022/03/24 13:58:18;;;;;;;26.85;21.48;;;;;;;;;;5301879;28;20108;-68
2022/03/24 14:01:00;;;;;;;28.35;21.20;;;;;;;;;;5302143;28;20039;-68
2022/03/24 14:03:36;;;;;;;33.35;21.35;;;;;;;;;;5301347;28;20012;-68
2022/03/24 14:06:07;;;;;;;28.25;21.83;;;;;;;;;;5302290;28;20016;-68
2022/03/24 14:08:42;;;;;;;36.30;21.80;;;;;;;;;;5302323;28;20027;-68
2022/03/24 14:11:18;;;;;;;31.80;21.77;;;;;;;;;;5301420;28;20052;-68
2022/03/24 14:13:50;;;;;;;28.08;21.50;;;;;;;;;;5301700;28;20047;-68
2022/03/24 14:16:27;;;;;;;30.20;22.00;;;;;;;;;;5302504;28;20020;-68
2022/03/24 14:19:04;;;;;;;35.90;22.55;;;;;;;;;;5301568;28;20032;-68
2022/03/24 14:21:42;;;;;;;32.65;21.80;;;;;;;;;;5302301;28;20020;-68
2022/03/24 14:24:50;;;;;;;26.70;21.63;;;;;;;;;;5301584;28;20036;-68
2022/03/24 14:27:25;;;;;;;29.10;20.77;;;;;;;;;;5217025;28;20034;-68
2022/03/24 14:30:01;;;;;;;28.48;21.40;;;;;;;;;;5290788;28;20024;-68
2022/03/24 14:32:36;;;;;;;27.58;22.88;;;;;;;;;;5301335;28;20036;-69
2022/03/24 14:35:11;;;;;;;25.02;20.85;;;;;;;;;;5302074;28;20028;-69
2022/03/24 14:37:44;;;;;;;28.70;21.83;;;;;;;;;;5302172;28;20028;-68
2022/03/24 14:40:29;;;;;;;29.08;21.92;;;;;;;;;;5304848;28;20019;-68
2022/03/24 14:43:02;;;;;;;30.30;21.63;;;;;;;;;;5305945;28;20136;-69
2022/03/24 14:45:35;;;;;;;28.63;22.42;;;;;;;;;;5304852;28;20458;-70
2022/03/24 14:48:06;;;;;;;30.52;21.95;;;;;;;;;;5306260;28;20036;-70
2022/03/24 14:50:39;;;;;;;31.40;21.20;;;;;;;;;;5306385;28;20024;-70
2022/03/24 14:53:11;;;;;;;34.28;22.35;;;;;;;;;;5305337;28;20104;-69